FDX1738 KRDU-KIND
Flight info
| Callsign | FDX1738 |
|---|---|
| Flight time | 1h 19m |
| Altitude | 30000 |
| Route | LWOOD5 DANCO ZIEBR HAGAL GIIBS4 |
| Aircraft | A306/H-SDE3FGHIRWY/LB1 |
Departure
| Time | 2026-05-07 00:47 |
|---|---|
| Airport | Raleigh-Durham International Airport (KRDU) |
Arrival
| Time | 2026-05-07 02:06 |
|---|---|
| Airport | Indianapolis International Airport (KIND) |
| Time | Latitude | Longitude | Altitude | Speed | Heading |
|---|---|---|---|---|---|
| 2026-05-07 00:17 | 35.89072 | -78.77603 | 403 ft | 0 kts | 134° |
| 2026-05-07 00:35 | 35.89079 | -78.77613 | 404 ft | 2 kts | 134° |
| 2026-05-07 00:35 | 35.89090 | -78.77626 | 404 ft | 2 kts | 134° |
| 2026-05-07 00:35 | 35.89100 | -78.77639 | 404 ft | 2 kts | 134° |
| 2026-05-07 00:36 | 35.89111 | -78.77653 | 404 ft | 2 kts | 134° |
| 2026-05-07 00:36 | 35.89115 | -78.77657 | 404 ft | 0 kts | 134° |
| 2026-05-07 00:39 | 35.89114 | -78.77657 | 404 ft | 0 kts | 134° |
| 2026-05-07 00:39 | 35.89112 | -78.77648 | 404 ft | 1 kts | 91° |
| 2026-05-07 00:40 | 35.89117 | -78.77638 | 404 ft | 1 kts | 46° |
| 2026-05-07 00:40 | 35.89133 | -78.77622 | 404 ft | 4 kts | 39° |
| 2026-05-07 00:40 | 35.89175 | -78.77600 | 404 ft | 9 kts | 357° |
| 2026-05-07 00:40 | 35.89235 | -78.77647 | 403 ft | 9 kts | 320° |
| 2026-05-07 00:41 | 35.89259 | -78.77678 | 402 ft | 0 kts | 313° |
| 2026-05-07 00:43 | 35.89268 | -78.77689 | 402 ft | 4 kts | 314° |
| 2026-05-07 00:43 | 35.89288 | -78.77714 | 400 ft | 0 kts | 314° |
| 2026-05-07 00:44 | 35.89300 | -78.77728 | 399 ft | 6 kts | 317° |
| 2026-05-07 00:45 | 35.89352 | -78.77794 | 395 ft | 12 kts | 296° |
| 2026-05-07 00:45 | 35.89344 | -78.77847 | 395 ft | 5 kts | 231° |
| 2026-05-07 00:45 | 35.89339 | -78.77854 | 396 ft | 0 kts | 226° |
| 2026-05-07 00:46 | 35.89287 | -78.77921 | 397 ft | 35 kts | 226° |
| 2026-05-07 00:46 | 35.88929 | -78.78363 | 404 ft | 109 kts | 225° |
| 2026-05-07 00:46 | 35.88235 | -78.79218 | 421 ft | 172 kts | 225° |
| 2026-05-07 00:47 | 35.87358 | -78.80348 | 907 ft | 187 kts | 227° |
| 2026-05-07 00:47 | 35.86417 | -78.81587 | 1406 ft | 213 kts | 227° |
| 2026-05-07 00:47 | 35.85397 | -78.82986 | 1847 ft | 217 kts | 233° |
| 2026-05-07 00:47 | 35.84778 | -78.84650 | 2261 ft | 221 kts | 256° |
| 2026-05-07 00:48 | 35.84688 | -78.86599 | 2919 ft | 232 kts | 269° |
| 2026-05-07 00:48 | 35.84784 | -78.88535 | 3956 ft | 225 kts | 270° |
| 2026-05-07 00:48 | 35.84888 | -78.90424 | 4799 ft | 226 kts | 271° |
| 2026-05-07 00:48 | 35.84984 | -78.92378 | 5479 ft | 233 kts | 271° |
| 2026-05-07 00:49 | 35.85349 | -78.94303 | 5854 ft | 237 kts | 297° |
| 2026-05-07 00:49 | 35.86363 | -78.96039 | 6012 ft | 257 kts | 303° |
| 2026-05-07 00:49 | 35.87465 | -78.97783 | 6007 ft | 260 kts | 303° |
| 2026-05-07 00:49 | 35.88544 | -78.99557 | 5989 ft | 257 kts | 302° |
| 2026-05-07 00:50 | 35.89608 | -79.01350 | 6228 ft | 267 kts | 302° |
| 2026-05-07 00:50 | 35.90698 | -79.03204 | 7160 ft | 266 kts | 301° |
| 2026-05-07 00:50 | 35.91754 | -79.05012 | 8129 ft | 262 kts | 301° |
| 2026-05-07 00:50 | 35.92807 | -79.06826 | 9015 ft | 261 kts | 301° |
| 2026-05-07 00:51 | 35.93859 | -79.08650 | 9799 ft | 263 kts | 301° |
| 2026-05-07 00:51 | 35.94925 | -79.10491 | 10417 ft | 270 kts | 301° |
| 2026-05-07 00:51 | 35.96056 | -79.12459 | 10641 ft | 291 kts | 301° |
| 2026-05-07 00:51 | 35.97261 | -79.14561 | 10866 ft | 312 kts | 301° |
| 2026-05-07 00:52 | 35.98568 | -79.16819 | 11051 ft | 334 kts | 301° |
| 2026-05-07 00:52 | 35.99967 | -79.19258 | 11364 ft | 351 kts | 301° |
| 2026-05-07 00:52 | 36.01387 | -79.21719 | 11932 ft | 359 kts | 301° |
| 2026-05-07 00:52 | 36.02795 | -79.24255 | 12647 ft | 360 kts | 298° |
| 2026-05-07 00:53 | 36.03955 | -79.26965 | 13460 ft | 358 kts | 292° |
| 2026-05-07 00:53 | 36.04985 | -79.29778 | 14258 ft | 357 kts | 290° |
| 2026-05-07 00:53 | 36.05978 | -79.32630 | 14837 ft | 363 kts | 290° |
| 2026-05-07 00:53 | 36.07055 | -79.35445 | 15458 ft | 369 kts | 298° |
| 2026-05-07 00:54 | 36.08876 | -79.37753 | 16027 ft | 384 kts | 317° |
| 2026-05-07 00:54 | 36.11155 | -79.39558 | 16714 ft | 390 kts | 323° |
| 2026-05-07 00:54 | 36.13506 | -79.41190 | 17385 ft | 391 kts | 325° |
| 2026-05-07 00:54 | 36.15903 | -79.42854 | 17911 ft | 395 kts | 324° |
| 2026-05-07 00:55 | 36.18303 | -79.44563 | 18286 ft | 403 kts | 324° |
| 2026-05-07 00:55 | 36.20744 | -79.46332 | 18875 ft | 405 kts | 323° |
| 2026-05-07 00:55 | 36.23195 | -79.48122 | 19469 ft | 406 kts | 323° |
| 2026-05-07 00:55 | 36.25627 | -79.49900 | 19899 ft | 411 kts | 323° |
| 2026-05-07 00:56 | 36.28126 | -79.51723 | 20382 ft | 414 kts | 323° |
| 2026-05-07 00:56 | 36.30630 | -79.53557 | 20895 ft | 417 kts | 323° |
| 2026-05-07 00:56 | 36.33114 | -79.55379 | 21299 ft | 422 kts | 323° |
| 2026-05-07 00:56 | 36.35674 | -79.57268 | 21770 ft | 425 kts | 323° |
| 2026-05-07 00:57 | 36.38220 | -79.59135 | 22237 ft | 428 kts | 323° |
| 2026-05-07 00:57 | 36.40816 | -79.61047 | 22639 ft | 433 kts | 323° |
| 2026-05-07 00:57 | 36.43407 | -79.62942 | 23124 ft | 435 kts | 323° |
| 2026-05-07 00:57 | 36.45999 | -79.64841 | 23653 ft | 436 kts | 323° |
| 2026-05-07 00:58 | 36.48640 | -79.66779 | 24238 ft | 436 kts | 322° |
| 2026-05-07 00:58 | 36.51252 | -79.68697 | 24672 ft | 439 kts | 322° |
| 2026-05-07 00:58 | 36.53902 | -79.70653 | 25017 ft | 445 kts | 321° |
| 2026-05-07 00:58 | 36.56580 | -79.72633 | 25598 ft | 445 kts | 321° |
| 2026-05-07 00:59 | 36.60780 | -79.77801 | 26499 ft | 423 kts | 296° |
| 2026-05-07 00:59 | 36.62304 | -79.80969 | 27025 ft | 421 kts | 295° |
| 2026-05-07 00:59 | 36.63803 | -79.84100 | 27590 ft | 421 kts | 295° |
| 2026-05-07 01:00 | 36.65351 | -79.87161 | 28171 ft | 420 kts | 296° |
| 2026-05-07 01:00 | 36.66933 | -79.90218 | 28773 ft | 418 kts | 296° |
| 2026-05-07 01:00 | 36.68499 | -79.93205 | 29441 ft | 413 kts | 296° |
| 2026-05-07 01:00 | 36.70074 | -79.96210 | 29839 ft | 411 kts | 296° |
| 2026-05-07 01:01 | 36.71623 | -79.99198 | 29920 ft | 414 kts | 296° |
| 2026-05-07 01:01 | 36.74767 | -80.05232 | 29923 ft | 416 kts | 295° |
| 2026-05-07 01:02 | 36.77906 | -80.11277 | 29929 ft | 413 kts | 296° |
| 2026-05-07 01:02 | 36.81054 | -80.17313 | 29925 ft | 414 kts | 296° |
| 2026-05-07 01:03 | 36.84178 | -80.23338 | 29934 ft | 413 kts | 295° |
| 2026-05-07 01:03 | 36.87275 | -80.29346 | 29939 ft | 414 kts | 295° |
| 2026-05-07 01:04 | 36.90420 | -80.35418 | 29945 ft | 413 kts | 295° |
| 2026-05-07 01:04 | 36.93505 | -80.41410 | 29947 ft | 412 kts | 295° |
| 2026-05-07 01:05 | 36.96602 | -80.47420 | 29940 ft | 413 kts | 295° |
| 2026-05-07 01:05 | 36.99733 | -80.53527 | 29930 ft | 414 kts | 295° |
| 2026-05-07 01:06 | 37.02875 | -80.59648 | 29929 ft | 416 kts | 295° |
| 2026-05-07 01:06 | 37.05987 | -80.65706 | 29934 ft | 413 kts | 294° |
| 2026-05-07 01:07 | 37.08932 | -80.71871 | 29979 ft | 404 kts | 288° |
| 2026-05-07 01:07 | 37.10842 | -80.78462 | 29980 ft | 402 kts | 282° |
| 2026-05-07 01:08 | 37.12637 | -80.85178 | 29970 ft | 402 kts | 283° |
| 2026-05-07 01:08 | 37.14465 | -80.91833 | 29968 ft | 404 kts | 282° |
| 2026-05-07 01:09 | 37.16297 | -80.98457 | 29968 ft | 404 kts | 283° |
| 2026-05-07 01:09 | 37.18134 | -81.05100 | 29976 ft | 404 kts | 282° |
| 2026-05-07 01:10 | 37.19942 | -81.11723 | 29989 ft | 401 kts | 282° |
| 2026-05-07 01:10 | 37.21749 | -81.18348 | 29976 ft | 399 kts | 282° |
| 2026-05-07 01:11 | 37.23558 | -81.24950 | 29987 ft | 401 kts | 282° |
| 2026-05-07 01:11 | 37.25353 | -81.31548 | 29974 ft | 401 kts | 282° |
| 2026-05-07 01:12 | 37.27154 | -81.38171 | 29966 ft | 400 kts | 283° |
| 2026-05-07 01:12 | 37.28927 | -81.44714 | 29956 ft | 398 kts | 282° |
| 2026-05-07 01:13 | 37.30715 | -81.51313 | 29942 ft | 397 kts | 282° |
| 2026-05-07 01:13 | 37.32498 | -81.57903 | 29940 ft | 399 kts | 281° |
| 2026-05-07 01:14 | 37.34259 | -81.64497 | 29934 ft | 397 kts | 282° |
| 2026-05-07 01:14 | 37.36028 | -81.71114 | 29969 ft | 396 kts | 282° |
| 2026-05-07 01:15 | 37.37788 | -81.77677 | 29989 ft | 398 kts | 281° |
| 2026-05-07 01:15 | 37.39549 | -81.84222 | 29962 ft | 398 kts | 281° |
| 2026-05-07 01:16 | 37.41293 | -81.90837 | 29997 ft | 398 kts | 281° |
| 2026-05-07 01:16 | 37.43021 | -81.97360 | 29986 ft | 393 kts | 281° |
| 2026-05-07 01:17 | 37.44745 | -82.03897 | 29980 ft | 395 kts | 281° |
| 2026-05-07 01:17 | 37.46490 | -82.10455 | 30008 ft | 394 kts | 281° |
| 2026-05-07 01:18 | 37.48257 | -82.17078 | 29971 ft | 398 kts | 281° |
| 2026-05-07 01:18 | 37.49965 | -82.23681 | 29984 ft | 398 kts | 281° |
| 2026-05-07 01:19 | 37.51696 | -82.30252 | 29980 ft | 395 kts | 281° |
| 2026-05-07 01:19 | 37.53429 | -82.36841 | 29985 ft | 395 kts | 281° |
| 2026-05-07 01:20 | 37.55151 | -82.43438 | 29976 ft | 397 kts | 281° |
| 2026-05-07 01:20 | 37.56847 | -82.50005 | 29972 ft | 393 kts | 281° |
| 2026-05-07 01:21 | 37.58562 | -82.56608 | 29961 ft | 394 kts | 281° |
| 2026-05-07 01:21 | 37.60276 | -82.63205 | 29958 ft | 397 kts | 281° |
| 2026-05-07 01:22 | 37.61964 | -82.69831 | 30007 ft | 393 kts | 280° |
| 2026-05-07 01:22 | 37.63593 | -82.76444 | 30002 ft | 392 kts | 277° |
| 2026-05-07 01:23 | 37.64924 | -82.83094 | 29995 ft | 389 kts | 277° |
| 2026-05-07 01:23 | 37.66287 | -82.89706 | 29993 ft | 391 kts | 278° |
| 2026-05-07 01:24 | 37.67679 | -82.96375 | 29977 ft | 391 kts | 277° |
| 2026-05-07 01:24 | 37.69057 | -83.03039 | 29980 ft | 389 kts | 277° |
| 2026-05-07 01:25 | 37.70420 | -83.09647 | 29987 ft | 390 kts | 277° |
| 2026-05-07 01:25 | 37.71779 | -83.16274 | 29989 ft | 386 kts | 277° |
| 2026-05-07 01:26 | 37.73138 | -83.22882 | 29986 ft | 390 kts | 277° |
| 2026-05-07 01:26 | 37.74491 | -83.29536 | 29986 ft | 389 kts | 278° |
| 2026-05-07 01:27 | 37.75839 | -83.36157 | 29983 ft | 389 kts | 277° |
| 2026-05-07 01:27 | 37.77202 | -83.42795 | 29989 ft | 388 kts | 277° |
| 2026-05-07 01:28 | 37.78507 | -83.49364 | 29972 ft | 384 kts | 278° |
| 2026-05-07 01:28 | 37.79850 | -83.55957 | 29968 ft | 385 kts | 277° |
| 2026-05-07 01:29 | 37.81168 | -83.62529 | 29949 ft | 385 kts | 277° |
| 2026-05-07 01:29 | 37.82491 | -83.69160 | 29996 ft | 385 kts | 276° |
| 2026-05-07 01:30 | 37.83818 | -83.75737 | 29996 ft | 384 kts | 277° |
| 2026-05-07 01:30 | 37.85110 | -83.82278 | 30001 ft | 383 kts | 277° |
| 2026-05-07 01:31 | 37.86425 | -83.88832 | 29999 ft | 386 kts | 277° |
| 2026-05-07 01:31 | 37.87718 | -83.95400 | 29998 ft | 383 kts | 277° |
| 2026-05-07 01:32 | 37.88997 | -84.01920 | 29993 ft | 380 kts | 277° |
| 2026-05-07 01:32 | 37.90289 | -84.08440 | 29994 ft | 382 kts | 277° |
| 2026-05-07 01:33 | 37.91583 | -84.14994 | 29992 ft | 382 kts | 277° |
| 2026-05-07 01:33 | 37.92846 | -84.21516 | 29985 ft | 381 kts | 277° |
| 2026-05-07 01:34 | 37.94117 | -84.28060 | 29983 ft | 379 kts | 277° |
| 2026-05-07 01:34 | 37.95385 | -84.34546 | 29992 ft | 379 kts | 277° |
| 2026-05-07 01:35 | 37.96641 | -84.41060 | 29988 ft | 378 kts | 276° |
| 2026-05-07 01:35 | 37.98112 | -84.48581 | 30000 ft | 379 kts | 277° |
| 2026-05-07 01:36 | 37.99134 | -84.54006 | 29990 ft | 375 kts | 276° |
| 2026-05-07 01:36 | 38.00391 | -84.60503 | 29980 ft | 377 kts | 277° |
| 2026-05-07 01:37 | 38.01629 | -84.66973 | 30002 ft | 378 kts | 277° |
| 2026-05-07 01:37 | 38.02863 | -84.73483 | 30036 ft | 374 kts | 276° |
| 2026-05-07 01:38 | 38.04091 | -84.79917 | 30045 ft | 376 kts | 276° |
| 2026-05-07 01:38 | 38.05328 | -84.86412 | 30041 ft | 375 kts | 275° |
| 2026-05-07 01:39 | 38.06509 | -84.92767 | 30036 ft | 372 kts | 275° |
| 2026-05-07 01:39 | 38.07717 | -84.99192 | 30032 ft | 374 kts | 276° |
| 2026-05-07 01:40 | 38.08932 | -85.05617 | 30021 ft | 375 kts | 276° |
| 2026-05-07 01:40 | 38.10101 | -85.11950 | 30013 ft | 371 kts | 276° |
| 2026-05-07 01:41 | 38.11323 | -85.18407 | 29997 ft | 372 kts | 276° |
| 2026-05-07 01:41 | 38.12506 | -85.24828 | 29996 ft | 372 kts | 276° |
| 2026-05-07 01:42 | 38.13700 | -85.31261 | 29990 ft | 371 kts | 276° |
| 2026-05-07 01:42 | 38.14894 | -85.37653 | 29981 ft | 371 kts | 276° |
| 2026-05-07 01:43 | 38.16048 | -85.44029 | 29978 ft | 369 kts | 276° |
| 2026-05-07 01:43 | 38.17224 | -85.50374 | 29964 ft | 372 kts | 276° |
| 2026-05-07 01:43 | 38.18260 | -85.53472 | 29956 ft | 391 kts | 291° |
| 2026-05-07 01:44 | 38.19899 | -85.56273 | 29956 ft | 401 kts | 298° |
| 2026-05-07 01:44 | 38.22092 | -85.58594 | 29937 ft | 432 kts | 315° |
| 2026-05-07 01:44 | 38.25042 | -85.60026 | 29956 ft | 463 kts | 330° |
| 2026-05-07 01:44 | 38.28280 | -85.60702 | 29959 ft | 479 kts | 338° |
| 2026-05-07 01:45 | 38.31611 | -85.61065 | 29953 ft | 480 kts | 340° |
| 2026-05-07 01:45 | 38.38229 | -85.61822 | 29958 ft | 479 kts | 338° |
| 2026-05-07 01:46 | 38.44854 | -85.62839 | 29955 ft | 475 kts | 337° |
| 2026-05-07 01:46 | 38.52570 | -85.64047 | 29957 ft | 487 kts | 338° |
| 2026-05-07 01:47 | 38.58247 | -85.64903 | 29960 ft | 489 kts | 338° |
| 2026-05-07 01:47 | 38.65068 | -85.65906 | 29339 ft | 497 kts | 338° |
| 2026-05-07 01:47 | 38.68433 | -85.66389 | 28586 ft | 479 kts | 338° |
| 2026-05-07 01:48 | 38.71690 | -85.66850 | 27615 ft | 468 kts | 338° |
| 2026-05-07 01:48 | 38.74916 | -85.67322 | 26553 ft | 458 kts | 337° |
| 2026-05-07 01:48 | 38.78075 | -85.67799 | 25362 ft | 452 kts | 337° |
| 2026-05-07 01:48 | 38.81156 | -85.68261 | 24215 ft | 446 kts | 338° |
| 2026-05-07 01:49 | 38.84188 | -85.68694 | 23896 ft | 420 kts | 337° |
| 2026-05-07 01:49 | 38.87020 | -85.69099 | 23202 ft | 409 kts | 336° |
| 2026-05-07 01:49 | 38.89835 | -85.69523 | 22213 ft | 405 kts | 336° |
| 2026-05-07 01:49 | 38.92633 | -85.69967 | 21088 ft | 406 kts | 337° |
| 2026-05-07 01:50 | 38.95437 | -85.70406 | 19991 ft | 403 kts | 339° |
| 2026-05-07 01:50 | 38.98183 | -85.70824 | 19191 ft | 402 kts | 339° |
| 2026-05-07 01:50 | 39.01075 | -85.71281 | 18587 ft | 423 kts | 340° |
| 2026-05-07 01:50 | 39.04005 | -85.71767 | 17976 ft | 425 kts | 340° |
| 2026-05-07 01:51 | 39.06918 | -85.72255 | 17369 ft | 419 kts | 340° |
| 2026-05-07 01:51 | 39.09774 | -85.72741 | 16795 ft | 413 kts | 341° |
| 2026-05-07 01:51 | 39.12650 | -85.73244 | 16203 ft | 405 kts | 341° |
| 2026-05-07 01:51 | 39.15384 | -85.73897 | 15642 ft | 387 kts | 334° |
| 2026-05-07 01:52 | 39.17846 | -85.75043 | 15131 ft | 371 kts | 327° |
| 2026-05-07 01:52 | 39.20178 | -85.76378 | 14644 ft | 360 kts | 326° |
| 2026-05-07 01:52 | 39.22419 | -85.77716 | 14140 ft | 354 kts | 326° |
| 2026-05-07 01:52 | 39.24621 | -85.79020 | 13671 ft | 347 kts | 327° |
| 2026-05-07 01:53 | 39.26859 | -85.80328 | 13194 ft | 354 kts | 327° |
| 2026-05-07 01:53 | 39.29166 | -85.81677 | 12698 ft | 368 kts | 328° |
| 2026-05-07 01:53 | 39.31511 | -85.83036 | 12172 ft | 367 kts | 328° |
| 2026-05-07 01:53 | 39.33660 | -85.84637 | 11843 ft | 348 kts | 319° |
| 2026-05-07 01:54 | 39.35569 | -85.86459 | 11588 ft | 332 kts | 316° |
| 2026-05-07 01:54 | 39.37321 | -85.88270 | 11349 ft | 318 kts | 315° |
| 2026-05-07 01:54 | 39.39009 | -85.90054 | 11080 ft | 306 kts | 315° |
| 2026-05-07 01:54 | 39.40615 | -85.91746 | 10826 ft | 296 kts | 315° |
| 2026-05-07 01:55 | 39.42197 | -85.93396 | 10549 ft | 282 kts | 315° |
| 2026-05-07 01:55 | 39.43686 | -85.94955 | 10293 ft | 269 kts | 315° |
| 2026-05-07 01:55 | 39.45104 | -85.96438 | 10146 ft | 252 kts | 316° |
| 2026-05-07 01:55 | 39.46457 | -85.97799 | 9895 ft | 243 kts | 316° |
| 2026-05-07 01:56 | 39.47768 | -85.99097 | 9636 ft | 233 kts | 317° |
| 2026-05-07 01:56 | 39.49034 | -86.00359 | 9350 ft | 228 kts | 317° |
| 2026-05-07 01:56 | 39.50305 | -86.01617 | 9024 ft | 226 kts | 317° |
| 2026-05-07 01:56 | 39.51537 | -86.02830 | 8766 ft | 223 kts | 317° |
| 2026-05-07 01:57 | 39.52779 | -86.04057 | 8513 ft | 226 kts | 318° |
| 2026-05-07 01:57 | 39.54044 | -86.05302 | 8261 ft | 230 kts | 319° |
| 2026-05-07 01:57 | 39.55317 | -86.06554 | 8007 ft | 227 kts | 319° |
| 2026-05-07 01:57 | 39.56567 | -86.07785 | 7749 ft | 223 kts | 319° |
| 2026-05-07 01:58 | 39.57787 | -86.08985 | 7499 ft | 222 kts | 320° |
| 2026-05-07 01:58 | 39.59001 | -86.10243 | 7260 ft | 226 kts | 315° |
| 2026-05-07 01:58 | 39.60149 | -86.11639 | 7003 ft | 225 kts | 314° |
| 2026-05-07 01:58 | 39.61260 | -86.13039 | 6748 ft | 221 kts | 314° |
| 2026-05-07 01:59 | 39.62352 | -86.14439 | 6496 ft | 221 kts | 314° |
| 2026-05-07 01:59 | 39.63450 | -86.15855 | 6256 ft | 226 kts | 314° |
| 2026-05-07 01:59 | 39.64561 | -86.17291 | 6036 ft | 225 kts | 314° |
| 2026-05-07 01:59 | 39.65859 | -86.18385 | 5668 ft | 230 kts | 345° |
| 2026-05-07 02:00 | 39.67440 | -86.18227 | 5333 ft | 235 kts | 21° |
| 2026-05-07 02:00 | 39.68825 | -86.17042 | 4977 ft | 238 kts | 35° |
| 2026-05-07 02:00 | 39.70090 | -86.15672 | 4605 ft | 239 kts | 37° |
| 2026-05-07 02:00 | 39.71335 | -86.14251 | 4256 ft | 237 kts | 38° |
| 2026-05-07 02:01 | 39.72516 | -86.12845 | 3854 ft | 227 kts | 39° |
| 2026-05-07 02:01 | 39.73665 | -86.11494 | 3333 ft | 220 kts | 33° |
| 2026-05-07 02:01 | 39.74970 | -86.10614 | 3026 ft | 201 kts | 13° |
| 2026-05-07 02:01 | 39.76272 | -86.10415 | 2961 ft | 175 kts | 351° |
| 2026-05-07 02:02 | 39.77271 | -86.11050 | 2954 ft | 157 kts | 310° |
| 2026-05-07 02:02 | 39.77780 | -86.12340 | 3012 ft | 169 kts | 295° |
| 2026-05-07 02:02 | 39.78248 | -86.13786 | 2999 ft | 172 kts | 295° |
| 2026-05-07 02:02 | 39.78763 | -86.15695 | 2888 ft | 170 kts | 283° |
| 2026-05-07 02:03 | 39.78863 | -86.16705 | 2840 ft | 163 kts | 280° |
| 2026-05-07 02:03 | 39.78901 | -86.18092 | 2744 ft | 146 kts | 268° |
| 2026-05-07 02:03 | 39.78617 | -86.19277 | 2547 ft | 138 kts | 246° |
| 2026-05-07 02:03 | 39.77971 | -86.20260 | 2392 ft | 144 kts | 230° |
| 2026-05-07 02:04 | 39.77243 | -86.21158 | 2246 ft | 143 kts | 233° |
| 2026-05-07 02:04 | 39.76539 | -86.22100 | 2064 ft | 144 kts | 234° |
| 2026-05-07 02:04 | 39.75840 | -86.23006 | 1891 ft | 144 kts | 231° |
| 2026-05-07 02:04 | 39.75118 | -86.23911 | 1710 ft | 142 kts | 232° |
| 2026-05-07 02:05 | 39.74418 | -86.24821 | 1505 ft | 143 kts | 231° |
| 2026-05-07 02:05 | 39.73729 | -86.25725 | 1296 ft | 141 kts | 229° |
| 2026-05-07 02:05 | 39.73028 | -86.26608 | 1090 ft | 142 kts | 228° |
| 2026-05-07 02:05 | 39.72334 | -86.27490 | 916 ft | 138 kts | 227° |
| 2026-05-07 02:06 | 39.71648 | -86.28367 | 786 ft | 135 kts | 227° |
| 2026-05-07 02:06 | 39.71109 | -86.29059 | 784 ft | 82 kts | 225° |
| 2026-05-07 02:06 | 39.70820 | -86.29426 | 784 ft | 47 kts | 225° |
| 2026-05-07 02:06 | 39.70606 | -86.29637 | 784 ft | 26 kts | 203° |
| 2026-05-07 02:07 | 39.70519 | -86.29674 | 784 ft | 3 kts | 195° |
| 2026-05-07 02:07 | 39.70434 | -86.29681 | 784 ft | 8 kts | 142° |
| 2026-05-07 02:07 | 39.70451 | -86.29599 | 784 ft | 12 kts | 45° |
| 2026-05-07 02:08 | 39.70521 | -86.29512 | 784 ft | 14 kts | 64° |
| 2026-05-07 02:08 | 39.70495 | -86.29397 | 784 ft | 14 kts | 83° |
| 2026-05-07 02:08 | 39.70563 | -86.29290 | 784 ft | 16 kts | 43° |
| 2026-05-07 02:08 | 39.70650 | -86.29181 | 784 ft | 18 kts | 44° |
| 2026-05-07 02:09 | 39.70742 | -86.29062 | 784 ft | 19 kts | 45° |
| 2026-05-07 02:09 | 39.70838 | -86.28939 | 784 ft | 10 kts | 45° |
| 2026-05-07 02:09 | 39.70884 | -86.28882 | 784 ft | 9 kts | 43° |
| 2026-05-07 02:09 | 39.70921 | -86.28876 | 784 ft | 4 kts | 323° |
| 2026-05-07 02:10 | 39.70947 | -86.28909 | 784 ft | 5 kts | 315° |
| 2026-05-07 02:10 | 39.70952 | -86.28915 | 784 ft | 1 kts | 315° |
| 2026-05-07 02:10 | 39.70953 | -86.28918 | 784 ft | 0 kts | 315° |